sensor_id;sensor_type;location;lat;lon;timestamp;pressure;altitude;pressure_sealevel;temperature;humidity
54308;BME280;40208;39.778;2.710;2022-12-07T00:01:23;101333.97;;;11.66;100.00
54308;BME280;40208;39.778;2.710;2022-12-07T00:04:16;101339.28;;;11.66;100.00
54308;BME280;40208;39.778;2.710;2022-12-07T00:07:07;101336.75;;;11.63;100.00
54308;BME280;40208;39.778;2.710;2022-12-07T00:09:58;101335.81;;;11.64;100.00
54308;BME280;40208;39.778;2.710;2022-12-07T00:12:50;101329.66;;;11.63;100.00
54308;BME280;40208;39.778;2.710;2022-12-07T00:15:40;101328.78;;;11.63;100.00
54308;BME280;40208;39.778;2.710;2022-12-07T00:18:32;101336.00;;;11.59;100.00
54308;BME280;40208;39.778;2.710;2022-12-07T00:21:23;101331.72;;;11.55;100.00
54308;BME280;40208;39.778;2.710;2022-12-07T00:24:13;101333.53;;;11.55;100.00
54308;BME280;40208;39.778;2.710;2022-12-07T00:27:04;101333.66;;;11.52;100.00
54308;BME280;40208;39.778;2.710;2022-12-07T00:29:55;101332.19;;;11.44;100.00
54308;BME280;40208;39.778;2.710;2022-12-07T00:32:46;101335.75;;;11.43;100.00
54308;BME280;40208;39.778;2.710;2022-12-07T00:35:37;101337.50;;;11.44;100.00
54308;BME280;40208;39.778;2.710;2022-12-07T00:38:30;101320.88;;;11.39;100.00
54308;BME280;40208;39.778;2.710;2022-12-07T00:41:22;101321.72;;;11.40;100.00
54308;BME280;40208;39.778;2.710;2022-12-07T00:44:13;101314.47;;;11.43;100.00
54308;BME280;40208;39.778;2.710;2022-12-07T00:47:05;101322.44;;;11.43;100.00
54308;BME280;40208;39.778;2.710;2022-12-07T00:49:55;101318.88;;;11.44;100.00
54308;BME280;40208;39.778;2.710;2022-12-07T00:52:47;101318.88;;;11.44;100.00
54308;BME280;40208;39.778;2.710;2022-12-07T00:55:38;101315.38;;;11.44;100.00
54308;BME280;40208;39.778;2.710;2022-12-07T00:58:28;101320.78;;;11.41;100.00
54308;BME280;40208;39.778;2.710;2022-12-07T01:01:19;101318.13;;;11.41;100.00
54308;BME280;40208;39.778;2.710;2022-12-07T01:04:11;101318.03;;;11.44;100.00
54308;BME280;40208;39.778;2.710;2022-12-07T01:07:02;101315.38;;;11.44;100.00
54308;BME280;40208;39.778;2.710;2022-12-07T01:09:53;101321.50;;;11.46;100.00
54308;BME280;40208;39.778;2.710;2022-12-07T01:12:43;101318.03;;;11.44;100.00
54308;BME280;40208;39.778;2.710;2022-12-07T01:15:38;101311.72;;;11.46;100.00
54308;BME280;40208;39.778;2.710;2022-12-07T01:18:29;101309.88;;;11.49;100.00
54308;BME280;40208;39.778;2.710;2022-12-07T01:21:21;101314.06;;;11.54;100.00
54308;BME280;40208;39.778;2.710;2022-12-07T01:24:12;101315.72;;;11.57;100.00
54308;BME280;40208;39.778;2.710;2022-12-07T01:27:04;101318.34;;;11.58;100.00
54308;BME280;40208;39.778;2.710;2022-12-07T01:29:54;101313.88;;;11.59;100.00
54308;BME280;40208;39.778;2.710;2022-12-07T01:32:45;101309.38;;;11.61;100.00
54308;BME280;40208;39.778;2.710;2022-12-07T01:35:36;101306.56;;;11.64;100.00
54308;BME280;40208;39.778;2.710;2022-12-07T01:38:28;101301.19;;;11.65;100.00
54308;BME280;40208;39.778;2.710;2022-12-07T01:41:19;101298.47;;;11.67;100.00
54308;BME280;40208;39.778;2.710;2022-12-07T01:44:12;101297.47;;;11.70;100.00
54308;BME280;40208;39.778;2.710;2022-12-07T01:47:04;101303.53;;;11.73;100.00
54308;BME280;40208;39.778;2.710;2022-12-07T01:49:55;101296.38;;;11.75;100.00
54308;BME280;40208;39.778;2.710;2022-12-07T01:52:45;101294.63;;;11.74;100.00
54308;BME280;40208;39.778;2.710;2022-12-07T01:55:40;101295.63;;;11.72;100.00
54308;BME280;40208;39.778;2.710;2022-12-07T01:58:31;101302.69;;;11.73;100.00
54308;BME280;40208;39.778;2.710;2022-12-07T02:01:22;101299.06;;;11.74;100.00
54308;BME280;40208;39.778;2.710;2022-12-07T02:04:13;101291.91;;;11.76;100.00
54308;BME280;40208;39.778;2.710;2022-12-07T02:07:04;101294.50;;;11.77;100.00
54308;BME280;40208;39.778;2.710;2022-12-07T02:09:55;101294.50;;;11.77;100.00
54308;BME280;40208;39.778;2.710;2022-12-07T02:12:47;101295.19;;;11.82;100.00
54308;BME280;40208;39.778;2.710;2022-12-07T02:18:55;101296.91;;;11.83;100.00
54308;BME280;40208;39.778;2.710;2022-12-07T02:25:04;101282.88;;;11.80;100.00
54308;BME280;40208;39.778;2.710;2022-12-07T02:31:17;101285.44;;;11.81;100.00
54308;BME280;40208;39.778;2.710;2022-12-07T02:34:14;101283.72;;;11.80;100.00
54308;BME280;40208;39.778;2.710;2022-12-07T02:37:33;101286.44;;;11.79;100.00
54308;BME280;40208;39.778;2.710;2022-12-07T02:43:15;101280.13;;;11.81;100.00
54308;BME280;40208;39.778;2.710;2022-12-07T02:46:12;101276.41;;;11.85;100.00
54308;BME280;40208;39.778;2.710;2022-12-07T02:49:03;101279.88;;;11.89;100.00
54308;BME280;40208;39.778;2.710;2022-12-07T02:51:55;101283.25;;;11.93;100.00
54308;BME280;40208;39.778;2.710;2022-12-07T02:54:46;101276.22;;;11.92;100.00
54308;BME280;40208;39.778;2.710;2022-12-07T02:57:43;101273.53;;;11.92;100.00
54308;BME280;40208;39.778;2.710;2022-12-07T03:00:40;101279.78;;;11.91;100.00
54308;BME280;40208;39.778;2.710;2022-12-07T03:03:35;101278.06;;;11.90;100.00
54308;BME280;40208;39.778;2.710;2022-12-07T03:06:37;101280.63;;;11.91;100.00
54308;BME280;40208;39.778;2.710;2022-12-07T03:09:35;101277.91;;;11.93;100.00
54308;BME280;40208;39.778;2.710;2022-12-07T03:12:29;101277.91;;;11.93;100.00
54308;BME280;40208;39.778;2.710;2022-12-07T03:15:25;101280.63;;;11.91;100.00
54308;BME280;40208;39.778;2.710;2022-12-07T03:18:18;101276.22;;;11.92;100.00
54308;BME280;40208;39.778;2.710;2022-12-07T03:21:15;101278.59;;;11.98;100.00
54308;BME280;40208;39.778;2.710;2022-12-07T03:24:09;101276.81;;;11.98;100.00
54308;BME280;40208;39.778;2.710;2022-12-07T03:27:13;101272.41;;;11.97;100.00
54308;BME280;40208;39.778;2.710;2022-12-07T03:30:15;101272.41;;;11.97;100.00
54308;BME280;40208;39.778;2.710;2022-12-07T03:36:32;101260.72;;;12.01;100.00
54308;BME280;40208;39.778;2.710;2022-12-07T03:42:35;101270.59;;;11.98;100.00
54308;BME280;40208;39.778;2.710;2022-12-07T03:45:32;101267.13;;;11.96;100.00
54308;BME280;40208;39.778;2.710;2022-12-07T03:54:23;101270.34;;;12.04;100.00
54308;BME280;40208;39.778;2.710;2022-12-07T03:57:14;101266.63;;;12.08;100.00
54308;BME280;40208;39.778;2.710;2022-12-07T04:00:06;101265.53;;;12.12;100.00
54308;BME280;40208;39.778;2.710;2022-12-07T04:02:56;101269.88;;;12.15;100.00
54308;BME280;40208;39.778;2.710;2022-12-07T04:05:46;101268.75;;;12.20;100.00
54308;BME280;40208;39.778;2.710;2022-12-07T04:08:37;101261.41;;;12.25;100.00
54308;BME280;40208;39.778;2.710;2022-12-07T04:11:27;101270.47;;;12.21;100.00
54308;BME280;40208;39.778;2.710;2022-12-07T04:14:18;101272.28;;;12.21;100.00
54308;BME280;40208;39.778;2.710;2022-12-07T04:17:10;101277.66;;;12.19;100.00
54308;BME280;40208;39.778;2.710;2022-12-07T04:20:01;101266.22;;;12.17;100.00
54308;BME280;40208;39.778;2.710;2022-12-07T04:22:52;101268.94;;;12.16;100.00
54308;BME280;40208;39.778;2.710;2022-12-07T04:25:43;101276.88;;;12.17;100.00
54308;BME280;40208;39.778;2.710;2022-12-07T04:28:34;101272.41;;;12.18;100.00
54308;BME280;40208;39.778;2.710;2022-12-07T04:31:25;101280.44;;;12.16;100.00
54308;BME280;40208;39.778;2.710;2022-12-07T04:34:16;101273.28;;;12.18;100.00
54308;BME280;40208;39.778;2.710;2022-12-07T04:37:07;101280.19;;;12.22;100.00
54308;BME280;40208;39.778;2.710;2022-12-07T04:39:58;101278.34;;;12.24;100.00
54308;BME280;40208;39.778;2.710;2022-12-07T04:42:48;101277.38;;;12.25;100.00
54308;BME280;40208;39.778;2.710;2022-12-07T04:45:39;101262.38;;;12.24;100.00
54308;BME280;40208;39.778;2.710;2022-12-07T04:48:30;101266.59;;;12.28;100.00
54308;BME280;40208;39.778;2.710;2022-12-07T04:51:25;101263.81;;;12.32;100.00
54308;BME280;40208;39.778;2.710;2022-12-07T04:54:15;101270.06;;;12.30;100.00
54308;BME280;40208;39.778;2.710;2022-12-07T04:57:06;101262.94;;;12.31;100.00
54308;BME280;40208;39.778;2.710;2022-12-07T04:59:58;101268.16;;;12.34;100.00
54308;BME280;40208;39.778;2.710;2022-12-07T05:02:49;101271.81;;;12.32;100.00
54308;BME280;40208;39.778;2.710;2022-12-07T05:05:40;101255.03;;;12.29;100.00
54308;BME280;40208;39.778;2.710;2022-12-07T05:08:32;101261.22;;;12.30;100.00
54308;BME280;40208;39.778;2.710;2022-12-07T05:11:22;101264.53;;;12.35;100.00
54308;BME280;40208;39.778;2.710;2022-12-07T05:14:29;101263.59;;;12.36;100.00
54308;BME280;40208;39.778;2.710;2022-12-07T05:16:55;101261.81;;;12.37;100.00
54308;BME280;40208;39.778;2.710;2022-12-07T05:19:46;101267.94;;;12.39;100.00
54308;BME280;40208;39.778;2.710;2022-12-07T05:22:36;101261.81;;;12.37;100.00
54308;BME280;40208;39.778;2.710;2022-12-07T05:25:26;101260.22;;;12.33;100.00
54308;BME280;40208;39.778;2.710;2022-12-07T05:28:17;101258.63;;;12.28;100.00
54308;BME280;40208;39.778;2.710;2022-12-07T05:31:08;101251.63;;;12.26;100.00
54308;BME280;40208;39.778;2.710;2022-12-07T05:33:59;101246.50;;;12.21;100.00
54308;BME280;40208;39.778;2.710;2022-12-07T05:36:49;101244.06;;;12.17;100.00
54308;BME280;40208;39.778;2.710;2022-12-07T05:39:41;101241.59;;;12.12;100.00
54308;BME280;40208;39.778;2.710;2022-12-07T05:42:33;101238.47;;;12.02;100.00
54308;BME280;40208;39.778;2.710;2022-12-07T05:45:23;101239.47;;;12.00;100.00
54308;BME280;40208;39.778;2.710;2022-12-07T05:48:15;101234.16;;;12.00;100.00
54308;BME280;40208;39.778;2.710;2022-12-07T05:51:06;101229.13;;;11.94;100.00
54308;BME280;40208;39.778;2.710;2022-12-07T05:53:57;101232.97;;;11.86;100.00
54308;BME280;40208;39.778;2.710;2022-12-07T05:56:48;101225.09;;;11.83;100.00
54308;BME280;40208;39.778;2.710;2022-12-07T05:59:39;101240.25;;;11.81;100.00
54308;BME280;40208;39.778;2.710;2022-12-07T06:02:30;101238.56;;;11.79;100.00
54308;BME280;40208;39.778;2.710;2022-12-07T06:05:21;101237.88;;;11.75;100.00
54308;BME280;40208;39.778;2.710;2022-12-07T06:08:12;101241.38;;;11.76;100.00
54308;BME280;40208;39.778;2.710;2022-12-07T06:11:03;101238.13;;;11.69;100.00
54308;BME280;40208;39.778;2.710;2022-12-07T06:14:12;101232.19;;;11.62;100.00
54308;BME280;40208;39.778;2.710;2022-12-07T06:17:03;101244.63;;;11.62;100.00
54308;BME280;40208;39.778;2.710;2022-12-07T06:19:54;101243.94;;;11.57;100.00
54308;BME280;40208;39.778;2.710;2022-12-07T06:22:45;101245.94;;;11.52;100.00
54308;BME280;40208;39.778;2.710;2022-12-07T06:25:36;101257.75;;;11.44;100.00
54308;BME280;40208;39.778;2.710;2022-12-07T06:28:29;101253.75;;;11.34;100.00
54308;BME280;40208;39.778;2.710;2022-12-07T06:31:20;101253.84;;;11.31;100.00
54308;BME280;40208;39.778;2.710;2022-12-07T06:34:13;101260.25;;;11.27;100.00
54308;BME280;40208;39.778;2.710;2022-12-07T06:37:04;101261.09;;;11.28;100.00
54308;BME280;40208;39.778;2.710;2022-12-07T06:39:55;101255.91;;;11.24;100.00
54308;BME280;40208;39.778;2.710;2022-12-07T06:42:46;101258.72;;;11.20;100.00
54308;BME280;40208;39.778;2.710;2022-12-07T06:45:37;101258.13;;;11.13;100.00
54308;BME280;40208;39.778;2.710;2022-12-07T06:48:28;101253.88;;;11.09;100.00
54308;BME280;40208;39.778;2.710;2022-12-07T06:51:19;101259.31;;;11.06;100.00
54308;BME280;40208;39.778;2.710;2022-12-07T06:54:10;101254.34;;;10.97;100.00
54308;BME280;40208;39.778;2.710;2022-12-07T06:57:02;101254.59;;;10.91;100.00
54308;BME280;40208;39.778;2.710;2022-12-07T06:59:53;101253.09;;;10.83;100.00
54308;BME280;40208;39.778;2.710;2022-12-07T07:02:44;101247.06;;;10.80;100.00
54308;BME280;40208;39.778;2.710;2022-12-07T07:05:35;101247.22;;;10.75;100.00
54308;BME280;40208;39.778;2.710;2022-12-07T07:08:26;101248.38;;;10.68;100.00
54308;BME280;40208;39.778;2.710;2022-12-07T07:11:17;101246.88;;;10.61;100.00
54308;BME280;40208;39.778;2.710;2022-12-07T07:14:08;101263.66;;;10.61;100.00
54308;BME280;40208;39.778;2.710;2022-12-07T07:16:59;101255.72;;;10.61;100.00
54308;BME280;40208;39.778;2.710;2022-12-07T07:19:50;101267.22;;;10.60;100.00
54308;BME280;40208;39.778;2.710;2022-12-07T07:22:41;101265.69;;;10.55;100.00
54308;BME280;40208;39.778;2.710;2022-12-07T07:25:32;101266.63;;;10.54;100.00
54308;BME280;40208;39.778;2.710;2022-12-07T07:28:22;101263.16;;;10.52;100.00
54308;BME280;40208;39.778;2.710;2022-12-07T07:31:14;101270.25;;;10.51;100.00
54308;BME280;40208;39.778;2.710;2022-12-07T07:34:05;101272.91;;;10.51;100.00
54308;BME280;40208;39.778;2.710;2022-12-07T07:36:56;101274.84;;;10.46;100.00
54308;BME280;40208;39.778;2.710;2022-12-07T07:39:47;101281.03;;;10.47;100.00
54308;BME280;40208;39.778;2.710;2022-12-07T07:42:38;101277.56;;;10.45;100.00
54308;BME280;40208;39.778;2.710;2022-12-07T07:45:28;101277.56;;;10.45;100.00
54308;BME280;40208;39.778;2.710;2022-12-07T07:48:19;101280.28;;;10.43;100.00
54308;BME280;40208;39.778;2.710;2022-12-07T07:51:10;101278.44;;;10.45;100.00
54308;BME280;40208;39.778;2.710;2022-12-07T07:54:01;101288.22;;;10.43;100.00
54308;BME280;40208;39.778;2.710;2022-12-07T07:56:52;101283.84;;;10.42;100.00
54308;BME280;40208;39.778;2.710;2022-12-07T07:59:43;101287.50;;;10.39;100.00
54308;BME280;40208;39.778;2.710;2022-12-07T08:02:34;101297.03;;;10.44;100.00
54308;BME280;40208;39.778;2.710;2022-12-07T08:05:26;101293.50;;;10.45;100.00
54308;BME280;40208;39.778;2.710;2022-12-07T08:08:17;101293.41;;;10.46;100.00
54308;BME280;40208;39.778;2.710;2022-12-07T08:11:08;101303.00;;;10.50;100.00
54308;BME280;40208;39.778;2.710;2022-12-07T08:13:59;101293.25;;;10.51;100.00
54308;BME280;40208;39.778;2.710;2022-12-07T08:16:50;101301.03;;;10.55;100.00
54308;BME280;40208;39.778;2.710;2022-12-07T08:19:41;101299.22;;;10.57;100.00
54308;BME280;40208;39.778;2.710;2022-12-07T08:22:32;101304.31;;;10.64;100.00
54308;BME280;40208;39.778;2.710;2022-12-07T08:25:23;101302.34;;;10.69;100.00
54308;BME280;40208;39.778;2.710;2022-12-07T08:28:14;101309.31;;;10.71;100.00
54308;BME280;40208;39.778;2.710;2022-12-07T08:31:07;101303.03;;;10.74;100.00
54308;BME280;40208;39.778;2.710;2022-12-07T08:33:59;101320.47;;;10.81;100.00
54308;BME280;40208;39.778;2.710;2022-12-07T08:36:50;101321.94;;;10.88;100.00
54308;BME280;40208;39.778;2.710;2022-12-07T08:39:41;101325.97;;;10.98;100.00
54308;BME280;40208;39.778;2.710;2022-12-07T08:42:32;101324.22;;;10.99;100.00
54308;BME280;40208;39.778;2.710;2022-12-07T08:45:30;101332.94;;;11.24;100.00
54308;BME280;40208;39.778;2.710;2022-12-07T08:48:25;101337.84;;;11.35;100.00
54308;BME280;40208;39.778;2.710;2022-12-07T08:51:17;101346.16;;;11.50;100.00
54308;BME280;40208;39.778;2.710;2022-12-07T08:54:09;101344.75;;;11.63;100.00
54308;BME280;40208;39.778;2.710;2022-12-07T08:56:36;101337.31;;;11.71;100.00
54308;BME280;40208;39.778;2.710;2022-12-07T08:59:27;101338.25;;;11.92;100.00
54308;BME280;40208;39.778;2.710;2022-12-07T09:02:19;101337.38;;;12.12;100.00
54308;BME280;40208;39.778;2.710;2022-12-07T09:05:10;101339.41;;;12.27;100.00
54308;BME280;40208;39.778;2.710;2022-12-07T09:08:01;101337.88;;;12.42;100.00
54308;BME280;40208;39.778;2.710;2022-12-07T09:10:52;101341.63;;;12.57;100.00
54308;BME280;40208;39.778;2.710;2022-12-07T09:13:43;101333.63;;;12.78;100.00
54308;BME280;40208;39.778;2.710;2022-12-07T09:16:34;101341.44;;;13.01;100.00
54308;BME280;40208;39.778;2.710;2022-12-07T09:19:25;101346.63;;;13.42;100.00
54308;BME280;40208;39.778;2.710;2022-12-07T09:22:16;101351.88;;;13.63;100.00
54308;BME280;40208;39.778;2.710;2022-12-07T09:25:07;101345.78;;;13.78;100.00
54308;BME280;40208;39.778;2.710;2022-12-07T09:27:58;101341.09;;;14.00;100.00
54308;BME280;40208;39.778;2.710;2022-12-07T09:30:48;101334.50;;;14.25;100.00
54308;BME280;40208;39.778;2.710;2022-12-07T09:33:40;101326.06;;;14.68;100.00
54308;BME280;40208;39.778;2.710;2022-12-07T09:36:32;101330.63;;;14.99;100.00
54308;BME280;40208;39.778;2.710;2022-12-07T09:39:23;101326.16;;;15.15;100.00
54308;BME280;40208;39.778;2.710;2022-12-07T09:45:12;101311.53;;;15.84;100.00
54308;BME280;40208;39.778;2.710;2022-12-07T09:48:04;101307.81;;;16.17;100.00
54308;BME280;40208;39.778;2.710;2022-12-07T09:50:55;101302.25;;;16.79;100.00
54308;BME280;40208;39.778;2.710;2022-12-07T09:53:47;101303.78;;;16.83;100.00
54308;BME280;40208;39.778;2.710;2022-12-07T09:56:38;101311.53;;;17.29;100.00
54308;BME280;40208;39.778;2.710;2022-12-07T09:59:29;101308.22;;;17.53;100.00
54308;BME280;40208;39.778;2.710;2022-12-07T10:02:42;101306.91;;;17.73;100.00
54308;BME280;40208;39.778;2.710;2022-12-07T10:05:39;101307.84;;;17.72;100.00
54308;BME280;40208;39.778;2.710;2022-12-07T10:08:32;101309.28;;;17.77;100.00
54308;BME280;40208;39.778;2.710;2022-12-07T10:11:23;101305.09;;;17.73;100.00
54308;BME280;40208;39.778;2.710;2022-12-07T10:14:14;101301.19;;;17.65;100.00
54308;BME280;40208;39.778;2.710;2022-12-07T10:20:16;101288.28;;;17.57;100.00
54308;BME280;40208;39.778;2.710;2022-12-07T10:23:13;101281.19;;;17.56;100.00
54308;BME280;40208;39.778;2.710;2022-12-07T10:29:34;101284.81;;;17.55;100.00
54308;BME280;40208;39.778;2.710;2022-12-07T10:32:33;101281.13;;;17.43;100.00
54308;BME280;40208;39.778;2.710;2022-12-07T10:35:26;101271.84;;;17.34;100.00
54308;BME280;40208;39.778;2.710;2022-12-07T10:38:17;101277.44;;;17.31;100.00
54308;BME280;40208;39.778;2.710;2022-12-07T10:41:07;101274.78;;;17.17;100.00
54308;BME280;40208;39.778;2.710;2022-12-07T10:43:58;101262.75;;;17.10;100.00
54308;BME280;40208;39.778;2.710;2022-12-07T10:47:14;101257.78;;;17.04;100.00
54308;BME280;40208;39.778;2.710;2022-12-07T10:50:07;101249.16;;;16.99;100.00
54308;BME280;40208;39.778;2.710;2022-12-07T10:53:26;101243.06;;;16.97;100.00
54308;BME280;40208;39.778;2.710;2022-12-07T11:02:27;101240.97;;;16.87;100.00
54308;BME280;40208;39.778;2.710;2022-12-07T11:11:34;101229.00;;;16.79;100.00
54308;BME280;40208;39.778;2.710;2022-12-07T11:14:28;101219.31;;;16.76;100.00
54308;BME280;40208;39.778;2.710;2022-12-07T11:29:08;101196.53;;;16.69;100.00
54308;BME280;40208;39.778;2.710;2022-12-07T11:38:22;101193.00;;;16.83;100.00
54308;BME280;40208;39.778;2.710;2022-12-07T11:41:14;101191.94;;;16.85;100.00
54308;BME280;40208;39.778;2.710;2022-12-07T11:47:17;101184.75;;;16.86;100.00
54308;BME280;40208;39.778;2.710;2022-12-07T11:56:11;101173.81;;;16.89;100.00
54308;BME280;40208;39.778;2.710;2022-12-07T11:59:12;101160.53;;;16.87;100.00
54308;BME280;40208;39.778;2.710;2022-12-07T12:02:16;101167.53;;;16.90;100.00
54308;BME280;40208;39.778;2.710;2022-12-07T12:05:19;101167.31;;;16.93;100.00
54308;BME280;40208;39.778;2.710;2022-12-07T12:08:13;101163.00;;;16.90;100.00
54308;BME280;40208;39.778;2.710;2022-12-07T12:11:23;101164.84;;;16.90;100.00
54308;BME280;40208;39.778;2.710;2022-12-07T12:20:20;101145.88;;;17.06;100.00
54308;BME280;40208;39.778;2.710;2022-12-07T12:26:03;101142.91;;;17.10;100.00
54308;BME280;40208;39.778;2.710;2022-12-07T12:29:02;101140.44;;;17.07;100.00
54308;BME280;40208;39.778;2.710;2022-12-07T12:35:20;101123.38;;;17.08;100.00
54308;BME280;40208;39.778;2.710;2022-12-07T12:41:08;101116.22;;;17.09;100.00
54308;BME280;40208;39.778;2.710;2022-12-07T13:02:09;101092.38;;;17.04;100.00
54308;BME280;40208;39.778;2.710;2022-12-07T13:08:01;101093.00;;;17.08;100.00
54308;BME280;40208;39.778;2.710;2022-12-07T13:10:53;101092.06;;;17.09;100.00
54308;BME280;40208;39.778;2.710;2022-12-07T13:13:43;101085.09;;;17.06;100.00
54308;BME280;40208;39.778;2.710;2022-12-07T13:16:37;101081.75;;;17.03;100.00
54308;BME280;40208;39.778;2.710;2022-12-07T13:25:36;101070.56;;;16.96;100.00
54308;BME280;40208;39.778;2.710;2022-12-07T13:28:33;101073.16;;;16.98;100.00
54308;BME280;40208;39.778;2.710;2022-12-07T13:31:32;101069.63;;;16.97;100.00
54308;BME280;40208;39.778;2.710;2022-12-07T13:34:34;101065.97;;;16.98;100.00
54308;BME280;40208;39.778;2.710;2022-12-07T13:37:28;101063.41;;;16.97;100.00
54308;BME280;40208;39.778;2.710;2022-12-07T13:40:21;101050.19;;;16.93;100.00
54308;BME280;40208;39.778;2.710;2022-12-07T13:43:13;101052.41;;;16.87;100.00
54308;BME280;40208;39.778;2.710;2022-12-07T13:46:04;101055.22;;;16.85;100.00
54308;BME280;40208;39.778;2.710;2022-12-07T13:48:58;101061.75;;;16.81;100.00
54308;BME280;40208;39.778;2.710;2022-12-07T13:51:49;101061.16;;;16.76;100.00
54308;BME280;40208;39.778;2.710;2022-12-07T13:57:39;101069.13;;;16.78;100.00
54308;BME280;40208;39.778;2.710;2022-12-07T14:00:31;101070.16;;;16.75;100.00
54308;BME280;40208;39.778;2.710;2022-12-07T14:03:27;101068.44;;;16.74;100.00
54308;BME280;40208;39.778;2.710;2022-12-07T14:06:25;101066.91;;;16.70;100.00
54308;BME280;40208;39.778;2.710;2022-12-07T14:09:21;101064.34;;;16.68;100.00
54308;BME280;40208;39.778;2.710;2022-12-07T14:12:13;101064.44;;;16.67;100.00
54308;BME280;40208;39.778;2.710;2022-12-07T14:15:04;101071.63;;;16.66;100.00
54308;BME280;40208;39.778;2.710;2022-12-07T14:17:57;101064.34;;;16.68;100.00
54308;BME280;40208;39.778;2.710;2022-12-07T14:20:48;101064.44;;;16.67;100.00
54308;BME280;40208;39.778;2.710;2022-12-07T14:23:39;101061.97;;;16.64;100.00
54308;BME280;40208;39.778;2.710;2022-12-07T14:26:30;101060.47;;;16.60;100.00
54308;BME280;40208;39.778;2.710;2022-12-07T14:32:34;101065.25;;;16.54;100.00
54308;BME280;40208;39.778;2.710;2022-12-07T14:35:26;101067.41;;;16.49;100.00
54308;BME280;40208;39.778;2.710;2022-12-07T14:38:17;101065.66;;;16.48;100.00
54308;BME280;40208;39.778;2.710;2022-12-07T14:44:38;101062.34;;;16.45;100.00
54308;BME280;40208;39.778;2.710;2022-12-07T14:47:29;101065.88;;;16.45;100.00
54308;BME280;40208;39.778;2.710;2022-12-07T14:50:20;101064.25;;;16.43;100.00
54308;BME280;40208;39.778;2.710;2022-12-07T14:53:15;101061.66;;;16.41;100.00
54308;BME280;40208;39.778;2.710;2022-12-07T14:56:07;101056.41;;;16.40;100.00
54308;BME280;40208;39.778;2.710;2022-12-07T14:58:58;101058.34;;;16.38;100.00
54308;BME280;40208;39.778;2.710;2022-12-07T15:01:49;101066.38;;;16.38;100.00
54308;BME280;40208;39.778;2.710;2022-12-07T15:04:40;101064.53;;;16.38;100.00
54308;BME280;40208;39.778;2.710;2022-12-07T15:07:31;101068.28;;;16.36;100.00
54308;BME280;40208;39.778;2.710;2022-12-07T15:10:24;101071.91;;;16.35;100.00
54308;BME280;40208;39.778;2.710;2022-12-07T15:13:19;101072.13;;;16.31;100.00
54308;BME280;40208;39.778;2.710;2022-12-07T15:16:28;101074.88;;;16.30;100.00
54308;BME280;40208;39.778;2.710;2022-12-07T15:19:20;101073.94;;;16.31;100.00
54308;BME280;40208;39.778;2.710;2022-12-07T15:22:16;101074.88;;;16.30;100.00
54308;BME280;40208;39.778;2.710;2022-12-07T15:25:08;101066.84;;;16.30;100.00
54308;BME280;40208;39.778;2.710;2022-12-07T15:27:59;101065.13;;;16.29;100.00
54308;BME280;40208;39.778;2.710;2022-12-07T15:30:50;101058.06;;;16.28;100.00
54308;BME280;40208;39.778;2.710;2022-12-07T15:33:41;101062.53;;;16.27;100.00
54308;BME280;40208;39.778;2.710;2022-12-07T15:36:32;101063.44;;;16.28;100.00
54308;BME280;40208;39.778;2.710;2022-12-07T15:39:23;101065.22;;;16.27;100.00
54308;BME280;40208;39.778;2.710;2022-12-07T15:42:14;101052.81;;;16.26;100.00
54308;BME280;40208;39.778;2.710;2022-12-07T15:45:06;101060.06;;;16.24;100.00
54308;BME280;40208;39.778;2.710;2022-12-07T15:47:57;101063.59;;;16.25;100.00
54308;BME280;40208;39.778;2.710;2022-12-07T15:50:23;101060.06;;;16.24;100.00
54308;BME280;40208;39.778;2.710;2022-12-07T15:53:14;101055.78;;;16.22;100.00
54308;BME280;40208;39.778;2.710;2022-12-07T15:56:05;101056.00;;;16.19;100.00
54308;BME280;40208;39.778;2.710;2022-12-07T15:58:56;101055.44;;;16.14;100.00
54308;BME280;40208;39.778;2.710;2022-12-07T16:01:47;101060.88;;;16.12;100.00
54308;BME280;40208;39.778;2.710;2022-12-07T16:04:38;101060.00;;;16.11;100.00
54308;BME280;40208;39.778;2.710;2022-12-07T16:07:29;101053.78;;;16.11;100.00
54308;BME280;40208;39.778;2.710;2022-12-07T16:10:20;101059.13;;;16.11;100.00
54308;BME280;40208;39.778;2.710;2022-12-07T16:13:11;101064.31;;;16.14;100.00
54308;BME280;40208;39.778;2.710;2022-12-07T16:16:04;101061.72;;;16.13;100.00
54308;BME280;40208;39.778;2.710;2022-12-07T16:18:55;101060.78;;;16.14;100.00
54308;BME280;40208;39.778;2.710;2022-12-07T16:21:46;101065.25;;;16.13;100.00
54308;BME280;40208;39.778;2.710;2022-12-07T16:24:31;101064.69;;;16.08;100.00
54308;BME280;40208;39.778;2.710;2022-12-07T16:27:16;101070.03;;;16.08;100.00
54308;BME280;40208;39.778;2.710;2022-12-07T16:30:01;101074.75;;;16.04;100.00
54308;BME280;40208;39.778;2.710;2022-12-07T16:32:46;101069.56;;;16.01;100.00
54308;BME280;40208;39.778;2.710;2022-12-07T16:35:30;101064.22;;;16.01;100.00
54308;BME280;40208;39.778;2.710;2022-12-07T16:38:15;101052.84;;;15.98;100.00
54308;BME280;40208;39.778;2.710;2022-12-07T16:41:00;101050.38;;;15.95;100.00
54308;BME280;40208;39.778;2.710;2022-12-07T16:43:45;101056.59;;;15.95;100.00
54308;BME280;40208;39.778;2.710;2022-12-07T16:46:31;101046.06;;;15.92;100.00
54308;BME280;40208;39.778;2.710;2022-12-07T16:49:17;101043.59;;;15.89;100.00
54308;BME280;40208;39.778;2.710;2022-12-07T16:52:02;101045.50;;;15.87;100.00
54308;BME280;40208;39.778;2.710;2022-12-07T16:54:48;101031.34;;;15.85;100.00